sensor_id;sensor_type;location;lat;lon;timestamp;P1;durP1;ratioP1;P2;durP2;ratioP2
22097;SDS011;11215;51.938;8.464;2023-06-04T00:01:08;1.30;;;1.20;;
22097;SDS011;11215;51.938;8.464;2023-06-04T00:03:34;2.13;;;1.30;;
22097;SDS011;11215;51.938;8.464;2023-06-04T00:06:00;3.80;;;1.20;;
22097;SDS011;11215;51.938;8.464;2023-06-04T00:08:26;2.17;;;1.57;;
22097;SDS011;11215;51.938;8.464;2023-06-04T00:10:51;2.00;;;1.50;;
22097;SDS011;11215;51.938;8.464;2023-06-04T00:13:17;6.30;;;1.60;;
22097;SDS011;11215;51.938;8.464;2023-06-04T00:15:43;1.97;;;1.57;;
22097;SDS011;11215;51.938;8.464;2023-06-04T00:18:08;1.77;;;1.50;;
22097;SDS011;11215;51.938;8.464;2023-06-04T00:20:36;3.43;;;1.70;;
22097;SDS011;11215;51.938;8.464;2023-06-04T00:23:01;2.80;;;1.93;;
22097;SDS011;11215;51.938;8.464;2023-06-04T00:25:27;4.57;;;1.83;;
22097;SDS011;11215;51.938;8.464;2023-06-04T00:27:53;2.87;;;1.70;;
22097;SDS011;11215;51.938;8.464;2023-06-04T00:30:18;3.33;;;1.73;;
22097;SDS011;11215;51.938;8.464;2023-06-04T00:32:44;2.27;;;1.43;;
22097;SDS011;11215;51.938;8.464;2023-06-04T00:35:11;3.93;;;1.63;;
22097;SDS011;11215;51.938;8.464;2023-06-04T00:37:37;2.23;;;1.70;;
22097;SDS011;11215;51.938;8.464;2023-06-04T00:40:03;3.63;;;1.83;;
22097;SDS011;11215;51.938;8.464;2023-06-04T00:42:30;2.40;;;1.60;;
22097;SDS011;11215;51.938;8.464;2023-06-04T00:44:56;2.57;;;1.87;;
22097;SDS011;11215;51.938;8.464;2023-06-04T00:47:22;2.70;;;1.83;;
22097;SDS011;11215;51.938;8.464;2023-06-04T00:49:48;2.43;;;1.80;;
22097;SDS011;11215;51.938;8.464;2023-06-04T00:52:14;2.00;;;1.70;;
22097;SDS011;11215;51.938;8.464;2023-06-04T00:54:41;3.60;;;1.83;;
22097;SDS011;11215;51.938;8.464;2023-06-04T00:57:07;3.27;;;1.80;;
22097;SDS011;11215;51.938;8.464;2023-06-04T00:59:34;2.47;;;1.43;;
22097;SDS011;11215;51.938;8.464;2023-06-04T01:02:09;1.73;;;1.37;;
22097;SDS011;11215;51.938;8.464;2023-06-04T01:07:35;1.70;;;1.23;;
22097;SDS011;11215;51.938;8.464;2023-06-04T01:10:01;1.43;;;1.20;;
22097;SDS011;11215;51.938;8.464;2023-06-04T01:12:27;3.23;;;1.37;;
22097;SDS011;11215;51.938;8.464;2023-06-04T01:14:53;1.97;;;1.40;;
22097;SDS011;11215;51.938;8.464;2023-06-04T01:17:26;1.70;;;1.20;;
22097;SDS011;11215;51.938;8.464;2023-06-04T01:27:58;1.70;;;1.40;;
22097;SDS011;11215;51.938;8.464;2023-06-04T01:30:29;1.80;;;1.57;;
22097;SDS011;11215;51.938;8.464;2023-06-04T01:32:57;1.80;;;1.30;;
22097;SDS011;11215;51.938;8.464;2023-06-04T01:35:27;1.43;;;1.33;;
22097;SDS011;11215;51.938;8.464;2023-06-04T01:37:54;4.10;;;1.30;;
22097;SDS011;11215;51.938;8.464;2023-06-04T01:40:20;2.67;;;1.50;;
22097;SDS011;11215;51.938;8.464;2023-06-04T01:42:46;1.60;;;1.30;;
22097;SDS011;11215;51.938;8.464;2023-06-04T01:45:12;2.53;;;1.40;;
22097;SDS011;11215;51.938;8.464;2023-06-04T01:47:37;2.70;;;1.40;;
22097;SDS011;11215;51.938;8.464;2023-06-04T01:50:06;2.73;;;1.70;;
22097;SDS011;11215;51.938;8.464;2023-06-04T01:52:34;2.43;;;1.27;;
22097;SDS011;11215;51.938;8.464;2023-06-04T01:55:01;2.20;;;1.43;;
22097;SDS011;11215;51.938;8.464;2023-06-04T01:57:28;2.23;;;1.50;;
22097;SDS011;11215;51.938;8.464;2023-06-04T01:59:53;1.50;;;1.40;;
22097;SDS011;11215;51.938;8.464;2023-06-04T02:02:19;2.57;;;1.60;;
22097;SDS011;11215;51.938;8.464;2023-06-04T02:04:45;3.03;;;1.50;;
22097;SDS011;11215;51.938;8.464;2023-06-04T02:07:11;1.70;;;1.60;;
22097;SDS011;11215;51.938;8.464;2023-06-04T02:09:42;1.60;;;1.40;;
22097;SDS011;11215;51.938;8.464;2023-06-04T02:12:08;1.53;;;1.30;;
22097;SDS011;11215;51.938;8.464;2023-06-04T02:14:34;2.13;;;1.40;;
22097;SDS011;11215;51.938;8.464;2023-06-04T02:17:00;1.97;;;1.40;;
22097;SDS011;11215;51.938;8.464;2023-06-04T02:19:26;2.17;;;1.50;;
22097;SDS011;11215;51.938;8.464;2023-06-04T02:21:54;1.93;;;1.37;;
22097;SDS011;11215;51.938;8.464;2023-06-04T02:24:20;1.87;;;1.50;;
22097;SDS011;11215;51.938;8.464;2023-06-04T02:26:46;3.10;;;1.43;;
22097;SDS011;11215;51.938;8.464;2023-06-04T02:29:12;2.03;;;1.40;;
22097;SDS011;11215;51.938;8.464;2023-06-04T02:31:38;1.20;;;1.10;;
22097;SDS011;11215;51.938;8.464;2023-06-04T02:34:03;1.40;;;1.30;;
22097;SDS011;11215;51.938;8.464;2023-06-04T02:36:29;1.97;;;1.40;;
22097;SDS011;11215;51.938;8.464;2023-06-04T02:38:57;1.27;;;1.17;;
22097;SDS011;11215;51.938;8.464;2023-06-04T02:41:23;2.90;;;1.50;;
22097;SDS011;11215;51.938;8.464;2023-06-04T02:43:49;3.33;;;1.50;;
22097;SDS011;11215;51.938;8.464;2023-06-04T02:46:14;1.57;;;1.20;;
22097;SDS011;11215;51.938;8.464;2023-06-04T02:48:40;2.57;;;1.30;;
22097;SDS011;11215;51.938;8.464;2023-06-04T02:51:06;2.30;;;1.10;;
22097;SDS011;11215;51.938;8.464;2023-06-04T02:53:35;3.00;;;1.27;;
22097;SDS011;11215;51.938;8.464;2023-06-04T02:56:01;3.00;;;1.40;;
22097;SDS011;11215;51.938;8.464;2023-06-04T02:58:27;2.00;;;1.20;;
22097;SDS011;11215;51.938;8.464;2023-06-04T03:00:54;1.63;;;1.50;;
22097;SDS011;11215;51.938;8.464;2023-06-04T03:03:19;1.53;;;1.33;;
22097;SDS011;11215;51.938;8.464;2023-06-04T03:05:45;2.17;;;1.50;;
22097;SDS011;11215;51.938;8.464;2023-06-04T03:08:11;1.40;;;1.20;;
22097;SDS011;11215;51.938;8.464;2023-06-04T03:10:37;1.90;;;1.40;;
22097;SDS011;11215;51.938;8.464;2023-06-04T03:13:03;2.43;;;1.37;;
22097;SDS011;11215;51.938;8.464;2023-06-04T03:15:28;1.97;;;1.40;;
22097;SDS011;11215;51.938;8.464;2023-06-04T03:17:54;3.33;;;1.60;;
22097;SDS011;11215;51.938;8.464;2023-06-04T03:20:20;2.43;;;1.30;;
22097;SDS011;11215;51.938;8.464;2023-06-04T03:22:49;2.23;;;1.67;;
22097;SDS011;11215;51.938;8.464;2023-06-04T03:25:15;2.33;;;1.53;;
22097;SDS011;11215;51.938;8.464;2023-06-04T03:27:41;2.27;;;1.27;;
22097;SDS011;11215;51.938;8.464;2023-06-04T03:30:07;1.83;;;1.50;;
22097;SDS011;11215;51.938;8.464;2023-06-04T03:32:33;1.87;;;1.30;;
22097;SDS011;11215;51.938;8.464;2023-06-04T03:34:59;1.87;;;1.23;;
22097;SDS011;11215;51.938;8.464;2023-06-04T03:37:26;2.30;;;1.40;;
22097;SDS011;11215;51.938;8.464;2023-06-04T03:39:52;1.57;;;1.23;;
22097;SDS011;11215;51.938;8.464;2023-06-04T03:42:17;1.50;;;1.30;;
22097;SDS011;11215;51.938;8.464;2023-06-04T03:44:43;6.10;;;1.67;;
22097;SDS011;11215;51.938;8.464;2023-06-04T03:47:09;1.33;;;1.20;;
22097;SDS011;11215;51.938;8.464;2023-06-04T03:49:35;2.43;;;1.13;;
22097;SDS011;11215;51.938;8.464;2023-06-04T03:52:00;2.10;;;1.40;;
22097;SDS011;11215;51.938;8.464;2023-06-04T03:54:26;2.60;;;1.50;;
22097;SDS011;11215;51.938;8.464;2023-06-04T03:56:52;1.50;;;1.30;;
22097;SDS011;11215;51.938;8.464;2023-06-04T03:59:17;2.40;;;1.53;;
22097;SDS011;11215;51.938;8.464;2023-06-04T04:01:43;1.80;;;1.50;;
22097;SDS011;11215;51.938;8.464;2023-06-04T04:04:09;4.43;;;1.57;;
22097;SDS011;11215;51.938;8.464;2023-06-04T04:06:35;3.70;;;1.63;;
22097;SDS011;11215;51.938;8.464;2023-06-04T04:09:02;1.40;;;1.30;;
22097;SDS011;11215;51.938;8.464;2023-06-04T04:11:29;2.03;;;1.40;;
22097;SDS011;11215;51.938;8.464;2023-06-04T04:13:54;2.27;;;1.40;;
22097;SDS011;11215;51.938;8.464;2023-06-04T04:16:21;1.90;;;1.40;;
22097;SDS011;11215;51.938;8.464;2023-06-04T04:18:47;4.17;;;1.70;;
22097;SDS011;11215;51.938;8.464;2023-06-04T04:21:12;1.73;;;1.40;;
22097;SDS011;11215;51.938;8.464;2023-06-04T04:23:39;2.40;;;1.53;;
22097;SDS011;11215;51.938;8.464;2023-06-04T04:26:05;2.10;;;1.43;;
22097;SDS011;11215;51.938;8.464;2023-06-04T04:28:31;2.93;;;1.70;;
22097;SDS011;11215;51.938;8.464;2023-06-04T04:30:59;2.37;;;1.60;;
22097;SDS011;11215;51.938;8.464;2023-06-04T04:33:27;1.83;;;1.53;;
22097;SDS011;11215;51.938;8.464;2023-06-04T04:35:57;3.00;;;1.50;;
22097;SDS011;11215;51.938;8.464;2023-06-04T04:38:24;4.20;;;1.80;;
22097;SDS011;11215;51.938;8.464;2023-06-04T04:40:50;1.87;;;1.30;;
22097;SDS011;11215;51.938;8.464;2023-06-04T04:43:38;1.90;;;1.60;;
22097;SDS011;11215;51.938;8.464;2023-06-04T04:46:06;1.30;;;1.20;;
22097;SDS011;11215;51.938;8.464;2023-06-04T04:48:32;1.73;;;1.40;;
22097;SDS011;11215;51.938;8.464;2023-06-04T04:50:58;4.73;;;1.50;;
22097;SDS011;11215;51.938;8.464;2023-06-04T04:53:24;2.00;;;1.43;;
22097;SDS011;11215;51.938;8.464;2023-06-04T04:55:51;2.37;;;1.30;;
22097;SDS011;11215;51.938;8.464;2023-06-04T04:58:16;3.20;;;1.40;;
22097;SDS011;11215;51.938;8.464;2023-06-04T05:00:42;1.83;;;1.20;;
22097;SDS011;11215;51.938;8.464;2023-06-04T05:03:08;2.63;;;1.27;;
22097;SDS011;11215;51.938;8.464;2023-06-04T05:05:33;2.67;;;1.37;;
22097;SDS011;11215;51.938;8.464;2023-06-04T05:07:59;2.10;;;1.43;;
22097;SDS011;11215;51.938;8.464;2023-06-04T05:10:25;1.77;;;1.40;;
22097;SDS011;11215;51.938;8.464;2023-06-04T05:12:54;1.30;;;1.20;;
22097;SDS011;11215;51.938;8.464;2023-06-04T05:15:22;1.50;;;1.40;;
22097;SDS011;11215;51.938;8.464;2023-06-04T05:17:47;1.77;;;1.40;;
22097;SDS011;11215;51.938;8.464;2023-06-04T05:20:13;1.93;;;1.50;;
22097;SDS011;11215;51.938;8.464;2023-06-04T05:22:40;1.60;;;1.50;;
22097;SDS011;11215;51.938;8.464;2023-06-04T05:25:08;2.40;;;1.30;;
22097;SDS011;11215;51.938;8.464;2023-06-04T05:27:34;4.10;;;1.27;;
22097;SDS011;11215;51.938;8.464;2023-06-04T05:30:00;2.30;;;1.70;;
22097;SDS011;11215;51.938;8.464;2023-06-04T05:32:28;1.40;;;1.30;;
22097;SDS011;11215;51.938;8.464;2023-06-04T05:34:55;2.70;;;1.20;;
22097;SDS011;11215;51.938;8.464;2023-06-04T05:37:25;2.40;;;1.40;;
22097;SDS011;11215;51.938;8.464;2023-06-04T05:39:57;1.20;;;1.10;;
22097;SDS011;11215;51.938;8.464;2023-06-04T05:42:23;1.73;;;1.30;;
22097;SDS011;11215;51.938;8.464;2023-06-04T05:44:49;2.00;;;1.35;;
22097;SDS011;11215;51.938;8.464;2023-06-04T05:47:15;2.72;;;1.48;;
22097;SDS011;11215;51.938;8.464;2023-06-04T05:49:41;2.40;;;1.40;;
22097;SDS011;11215;51.938;8.464;2023-06-04T05:52:07;1.20;;;1.10;;
22097;SDS011;11215;51.938;8.464;2023-06-04T05:54:33;2.38;;;1.30;;
22097;SDS011;11215;51.938;8.464;2023-06-04T05:56:58;1.70;;;1.52;;
22097;SDS011;11215;51.938;8.464;2023-06-04T05:59:24;1.10;;;1.00;;
22097;SDS011;11215;51.938;8.464;2023-06-04T06:01:50;1.75;;;1.42;;
22097;SDS011;11215;51.938;8.464;2023-06-04T06:04:15;1.27;;;0.98;;
22097;SDS011;11215;51.938;8.464;2023-06-04T06:06:44;2.72;;;1.20;;
22097;SDS011;11215;51.938;8.464;2023-06-04T06:09:13;2.15;;;1.13;;
22097;SDS011;11215;51.938;8.464;2023-06-04T06:11:40;2.65;;;1.63;;
22097;SDS011;11215;51.938;8.464;2023-06-04T06:14:06;2.00;;;1.25;;
22097;SDS011;11215;51.938;8.464;2023-06-04T06:16:31;2.58;;;1.55;;
22097;SDS011;11215;51.938;8.464;2023-06-04T06:18:57;1.30;;;1.20;;
22097;SDS011;11215;51.938;8.464;2023-06-04T06:21:23;1.92;;;1.10;;
22097;SDS011;11215;51.938;8.464;2023-06-04T06:23:50;2.10;;;1.27;;
22097;SDS011;11215;51.938;8.464;2023-06-04T06:26:16;1.95;;;1.27;;
22097;SDS011;11215;51.938;8.464;2023-06-04T06:28:43;1.90;;;1.70;;
22097;SDS011;11215;51.938;8.464;2023-06-04T06:31:09;2.53;;;1.50;;
22097;SDS011;11215;51.938;8.464;2023-06-04T06:33:35;2.67;;;1.20;;
22097;SDS011;11215;51.938;8.464;2023-06-04T06:36:01;1.57;;;1.33;;
22097;SDS011;11215;51.938;8.464;2023-06-04T06:38:27;1.47;;;1.37;;
22097;SDS011;11215;51.938;8.464;2023-06-04T06:40:53;3.57;;;1.50;;
22097;SDS011;11215;51.938;8.464;2023-06-04T06:43:19;2.93;;;1.50;;
22097;SDS011;11215;51.938;8.464;2023-06-04T06:45:45;2.37;;;1.20;;
22097;SDS011;11215;51.938;8.464;2023-06-04T06:48:10;1.80;;;1.43;;
22097;SDS011;11215;51.938;8.464;2023-06-04T06:50:36;2.23;;;1.60;;
22097;SDS011;11215;51.938;8.464;2023-06-04T06:53:02;1.70;;;1.33;;
22097;SDS011;11215;51.938;8.464;2023-06-04T06:55:28;3.87;;;1.50;;
22097;SDS011;11215;51.938;8.464;2023-06-04T06:57:54;2.70;;;1.40;;
22097;SDS011;11215;51.938;8.464;2023-06-04T07:00:19;2.57;;;1.43;;
22097;SDS011;11215;51.938;8.464;2023-06-04T07:02:45;3.43;;;1.67;;
22097;SDS011;11215;51.938;8.464;2023-06-04T07:05:11;3.37;;;1.77;;
22097;SDS011;11215;51.938;8.464;2023-06-04T07:07:38;2.70;;;2.00;;
22097;SDS011;11215;51.938;8.464;2023-06-04T07:10:04;2.30;;;1.67;;
22097;SDS011;11215;51.938;8.464;2023-06-04T07:12:30;2.43;;;1.90;;
22097;SDS011;11215;51.938;8.464;2023-06-04T07:14:56;2.80;;;1.63;;
22097;SDS011;11215;51.938;8.464;2023-06-04T07:17:22;3.70;;;1.90;;
22097;SDS011;11215;51.938;8.464;2023-06-04T07:19:47;3.20;;;1.80;;
22097;SDS011;11215;51.938;8.464;2023-06-04T07:22:13;3.40;;;2.13;;
22097;SDS011;11215;51.938;8.464;2023-06-04T07:24:41;2.70;;;1.90;;
22097;SDS011;11215;51.938;8.464;2023-06-04T07:27:13;4.10;;;2.00;;
22097;SDS011;11215;51.938;8.464;2023-06-04T07:29:39;2.17;;;1.97;;
22097;SDS011;11215;51.938;8.464;2023-06-04T07:32:07;3.20;;;1.97;;
22097;SDS011;11215;51.938;8.464;2023-06-04T07:34:33;2.03;;;1.83;;
22097;SDS011;11215;51.938;8.464;2023-06-04T07:36:59;3.23;;;2.23;;
22097;SDS011;11215;51.938;8.464;2023-06-04T07:39:25;4.53;;;2.20;;
22097;SDS011;11215;51.938;8.464;2023-06-04T07:41:51;3.87;;;2.20;;
22097;SDS011;11215;51.938;8.464;2023-06-04T07:44:16;1.83;;;1.70;;
22097;SDS011;11215;51.938;8.464;2023-06-04T07:46:42;2.50;;;2.10;;
22097;SDS011;11215;51.938;8.464;2023-06-04T07:49:08;3.77;;;2.07;;
22097;SDS011;11215;51.938;8.464;2023-06-04T07:51:34;2.10;;;1.77;;
22097;SDS011;11215;51.938;8.464;2023-06-04T07:53:59;2.73;;;2.13;;
22097;SDS011;11215;51.938;8.464;2023-06-04T07:56:25;2.10;;;1.90;;
22097;SDS011;11215;51.938;8.464;2023-06-04T07:58:51;3.93;;;2.10;;
22097;SDS011;11215;51.938;8.464;2023-06-04T08:01:17;2.40;;;2.20;;
22097;SDS011;11215;51.938;8.464;2023-06-04T08:03:43;2.23;;;1.90;;
22097;SDS011;11215;51.938;8.464;2023-06-04T08:06:09;2.63;;;2.23;;
22097;SDS011;11215;51.938;8.464;2023-06-04T08:08:35;4.40;;;2.17;;
22097;SDS011;11215;51.938;8.464;2023-06-04T08:11:01;2.80;;;2.30;;
22097;SDS011;11215;51.938;8.464;2023-06-04T08:13:27;2.30;;;2.10;;
22097;SDS011;11215;51.938;8.464;2023-06-04T08:15:53;5.20;;;2.37;;
22097;SDS011;11215;51.938;8.464;2023-06-04T08:18:19;3.27;;;2.03;;
22097;SDS011;11215;51.938;8.464;2023-06-04T08:20:44;2.40;;;2.20;;
22097;SDS011;11215;51.938;8.464;2023-06-04T08:23:10;2.37;;;1.80;;
22097;SDS011;11215;51.938;8.464;2023-06-04T08:25:36;2.10;;;1.90;;
22097;SDS011;11215;51.938;8.464;2023-06-04T08:28:01;2.53;;;1.90;;
22097;SDS011;11215;51.938;8.464;2023-06-04T08:30:27;4.40;;;2.00;;
22097;SDS011;11215;51.938;8.464;2023-06-04T08:32:54;3.63;;;2.03;;
22097;SDS011;11215;51.938;8.464;2023-06-04T08:35:19;3.87;;;2.00;;
22097;SDS011;11215;51.938;8.464;2023-06-04T08:37:46;2.73;;;1.80;;
22097;SDS011;11215;51.938;8.464;2023-06-04T08:40:11;2.03;;;1.80;;
22097;SDS011;11215;51.938;8.464;2023-06-04T08:42:41;2.20;;;1.90;;
22097;SDS011;11215;51.938;8.464;2023-06-04T08:45:10;2.20;;;2.00;;
22097;SDS011;11215;51.938;8.464;2023-06-04T08:47:49;1.90;;;1.80;;
22097;SDS011;11215;51.938;8.464;2023-06-04T08:50:19;2.53;;;1.80;;
22097;SDS011;11215;51.938;8.464;2023-06-04T08:52:47;3.30;;;2.10;;
22097;SDS011;11215;51.938;8.464;2023-06-04T08:55:17;1.67;;;1.57;;
22097;SDS011;11215;51.938;8.464;2023-06-04T08:57:43;2.10;;;1.70;;
22097;SDS011;11215;51.938;8.464;2023-06-04T09:00:09;2.10;;;1.90;;
22097;SDS011;11215;51.938;8.464;2023-06-04T09:02:38;3.57;;;2.07;;
22097;SDS011;11215;51.938;8.464;2023-06-04T09:05:04;2.60;;;2.17;;
22097;SDS011;11215;51.938;8.464;2023-06-04T09:07:34;3.50;;;1.80;;
22097;SDS011;11215;51.938;8.464;2023-06-04T09:10:07;3.57;;;2.10;;
22097;SDS011;11215;51.938;8.464;2023-06-04T09:12:36;5.20;;;1.77;;
22097;SDS011;11215;51.938;8.464;2023-06-04T09:15:05;1.60;;;1.50;;
22097;SDS011;11215;51.938;8.464;2023-06-04T09:17:33;3.53;;;1.97;;
22097;SDS011;11215;51.938;8.464;2023-06-04T09:19:59;2.33;;;1.57;;
22097;SDS011;11215;51.938;8.464;2023-06-04T09:22:32;2.93;;;1.80;;
22097;SDS011;11215;51.938;8.464;2023-06-04T09:24:58;2.00;;;1.70;;
22097;SDS011;11215;51.938;8.464;2023-06-04T09:27:24;2.00;;;1.63;;
22097;SDS011;11215;51.938;8.464;2023-06-04T09:32:24;6.40;;;2.17;;
22097;SDS011;11215;51.938;8.464;2023-06-04T09:34:51;4.20;;;2.10;;
22097;SDS011;11215;51.938;8.464;2023-06-04T09:37:19;4.00;;;2.07;;
22097;SDS011;11215;51.938;8.464;2023-06-04T09:39:56;2.63;;;1.80;;
22097;SDS011;11215;51.938;8.464;2023-06-04T09:42:22;3.10;;;2.10;;
22097;SDS011;11215;51.938;8.464;2023-06-04T09:44:48;2.33;;;1.97;;
22097;SDS011;11215;51.938;8.464;2023-06-04T09:47:14;2.40;;;1.90;;
22097;SDS011;11215;51.938;8.464;2023-06-04T09:49:43;2.50;;;2.07;;
22097;SDS011;11215;51.938;8.464;2023-06-04T09:52:10;2.17;;;1.83;;
22097;SDS011;11215;51.938;8.464;2023-06-04T09:54:37;2.53;;;1.70;;
22097;SDS011;11215;51.938;8.464;2023-06-04T09:57:13;2.80;;;1.90;;
22097;SDS011;11215;51.938;8.464;2023-06-04T09:59:46;3.13;;;1.93;;
22097;SDS011;11215;51.938;8.464;2023-06-04T10:02:18;4.20;;;1.90;;
22097;SDS011;11215;51.938;8.464;2023-06-04T10:04:48;2.73;;;1.80;;
22097;SDS011;11215;51.938;8.464;2023-06-04T10:07:23;2.33;;;2.00;;
22097;SDS011;11215;51.938;8.464;2023-06-04T10:09:50;4.80;;;2.13;;
22097;SDS011;11215;51.938;8.464;2023-06-04T10:12:17;3.43;;;2.27;;
22097;SDS011;11215;51.938;8.464;2023-06-04T10:14:56;2.90;;;2.13;;
22097;SDS011;11215;51.938;8.464;2023-06-04T10:17:26;2.40;;;1.77;;
22097;SDS011;11215;51.938;8.464;2023-06-04T10:19:54;2.90;;;1.70;;
22097;SDS011;11215;51.938;8.464;2023-06-04T10:22:21;2.03;;;1.83;;
22097;SDS011;11215;51.938;8.464;2023-06-04T10:24:47;2.17;;;1.80;;
22097;SDS011;11215;51.938;8.464;2023-06-04T10:27:13;2.50;;;2.13;;
22097;SDS011;11215;51.938;8.464;2023-06-04T10:29:39;1.70;;;1.60;;
22097;SDS011;11215;51.938;8.464;2023-06-04T10:32:05;2.13;;;1.93;;
22097;SDS011;11215;51.938;8.464;2023-06-04T10:34:31;2.80;;;1.90;;
22097;SDS011;11215;51.938;8.464;2023-06-04T10:36:58;4.23;;;2.17;;
22097;SDS011;11215;51.938;8.464;2023-06-04T10:39:30;5.27;;;2.17;;
22097;SDS011;11215;51.938;8.464;2023-06-04T10:42:06;2.83;;;1.80;;
22097;SDS011;11215;51.938;8.464;2023-06-04T10:44:32;3.07;;;2.30;;
22097;SDS011;11215;51.938;8.464;2023-06-04T10:47:25;2.33;;;2.00;;
22097;SDS011;11215;51.938;8.464;2023-06-04T10:49:52;3.73;;;2.40;;
22097;SDS011;11215;51.938;8.464;2023-06-04T10:52:19;5.57;;;2.10;;
22097;SDS011;11215;51.938;8.464;2023-06-04T10:54:46;3.10;;;2.30;;
22097;SDS011;11215;51.938;8.464;2023-06-04T10:57:18;2.40;;;1.90;;
22097;SDS011;11215;51.938;8.464;2023-06-04T10:59:56;4.60;;;1.63;;
22097;SDS011;11215;51.938;8.464;2023-06-04T11:02:23;4.40;;;1.60;;
22097;SDS011;11215;51.938;8.464;2023-06-04T11:05:02;3.53;;;1.90;;
22097;SDS011;11215;51.938;8.464;2023-06-04T11:07:43;2.07;;;1.87;;
22097;SDS011;11215;51.938;8.464;2023-06-04T11:10:12;1.70;;;1.60;;
22097;SDS011;11215;51.938;8.464;2023-06-04T11:12:42;3.20;;;1.80;;
22097;SDS011;11215;51.938;8.464;2023-06-04T11:15:08;2.97;;;1.90;;
22097;SDS011;11215;51.938;8.464;2023-06-04T11:17:35;2.67;;;2.10;;
22097;SDS011;11215;51.938;8.464;2023-06-04T11:20:01;2.47;;;1.77;;
22097;SDS011;11215;51.938;8.464;2023-06-04T11:22:27;2.10;;;1.90;;
22097;SDS011;11215;51.938;8.464;2023-06-04T11:24:57;3.33;;;2.10;;
22097;SDS011;11215;51.938;8.464;2023-06-04T11:27:25;1.80;;;1.70;;
22097;SDS011;11215;51.938;8.464;2023-06-04T11:29:51;4.00;;;2.00;;
22097;SDS011;11215;51.938;8.464;2023-06-04T11:32:23;2.10;;;1.90;;
22097;SDS011;11215;51.938;8.464;2023-06-04T11:34:49;2.73;;;2.00;;
22097;SDS011;11215;51.938;8.464;2023-06-04T11:37:15;4.10;;;1.60;;
22097;SDS011;11215;51.938;8.464;2023-06-04T11:39:40;2.50;;;1.60;;
22097;SDS011;11215;51.938;8.464;2023-06-04T11:42:09;2.07;;;1.87;;
22097;SDS011;11215;51.938;8.464;2023-06-04T11:44:35;2.27;;;1.80;;
22097;SDS011;11215;51.938;8.464;2023-06-04T11:47:04;1.67;;;1.57;;
22097;SDS011;11215;51.938;8.464;2023-06-04T11:49:33;2.70;;;1.90;;
22097;SDS011;11215;51.938;8.464;2023-06-04T11:52:01;1.97;;;1.73;;
22097;SDS011;11215;51.938;8.464;2023-06-04T11:54:27;2.80;;;1.53;;
22097;SDS011;11215;51.938;8.464;2023-06-04T11:56:53;5.53;;;1.97;;
22097;SDS011;11215;51.938;8.464;2023-06-04T11:59:19;2.40;;;1.90;;
22097;SDS011;11215;51.938;8.464;2023-06-04T12:01:45;1.70;;;1.60;;
22097;SDS011;11215;51.938;8.464;2023-06-04T12:04:16;2.07;;;1.17;;
22097;SDS011;11215;51.938;8.464;2023-06-04T12:09:31;1.80;;;1.57;;
22097;SDS011;11215;51.938;8.464;2023-06-04T12:12:06;1.60;;;1.43;;
22097;SDS011;11215;51.938;8.464;2023-06-04T12:14:33;3.00;;;1.50;;
22097;SDS011;11215;51.938;8.464;2023-06-04T12:19:26;3.13;;;1.60;;
22097;SDS011;11215;51.938;8.464;2023-06-04T12:22:25;2.47;;;1.50;;
22097;SDS011;11215;51.938;8.464;2023-06-04T12:24:48;1.50;;;1.33;;
22097;SDS011;11215;51.938;8.464;2023-06-04T12:27:18;2.17;;;1.30;;
22097;SDS011;11215;51.938;8.464;2023-06-04T12:29:57;2.03;;;1.45;;
22097;SDS011;11215;51.938;8.464;2023-06-04T12:32:24;2.53;;;1.50;;
22097;SDS011;11215;51.938;8.464;2023-06-04T12:34:50;2.90;;;1.60;;
22097;SDS011;11215;51.938;8.464;2023-06-04T12:37:16;1.42;;;1.33;;
22097;SDS011;11215;51.938;8.464;2023-06-04T12:39:42;2.90;;;1.48;;
22097;SDS011;11215;51.938;8.464;2023-06-04T12:42:08;3.07;;;1.50;;
22097;SDS011;11215;51.938;8.464;2023-06-04T12:44:38;2.03;;;1.50;;
22097;SDS011;11215;51.938;8.464;2023-06-04T12:47:04;1.83;;;1.47;;
22097;SDS011;11215;51.938;8.464;2023-06-04T12:49:30;2.40;;;1.40;;
22097;SDS011;11215;51.938;8.464;2023-06-04T12:51:56;2.37;;;1.37;;
22097;SDS011;11215;51.938;8.464;2023-06-04T12:54:21;1.60;;;1.48;;
22097;SDS011;11215;51.938;8.464;2023-06-04T12:56:47;1.40;;;1.30;;
22097;SDS011;11215;51.938;8.464;2023-06-04T12:59:14;3.25;;;1.20;;
22097;SDS011;11215;51.938;8.464;2023-06-04T13:01:39;2.47;;;1.60;;
22097;SDS011;11215;51.938;8.464;2023-06-04T13:04:05;3.58;;;1.48;;
22097;SDS011;11215;51.938;8.464;2023-06-04T13:06:33;3.20;;;1.40;;
22097;SDS011;11215;51.938;8.464;2023-06-04T13:09:00;1.92;;;1.25;;
22097;SDS011;11215;51.938;8.464;2023-06-04T13:11:26;5.50;;;1.90;;
22097;SDS011;11215;51.938;8.464;2023-06-04T13:13:52;1.88;;;1.20;;
22097;SDS011;11215;51.938;8.464;2023-06-04T13:16:18;1.60;;;1.40;;
22097;SDS011;11215;51.938;8.464;2023-06-04T13:18:43;3.25;;;1.50;;
22097;SDS011;11215;51.938;8.464;2023-06-04T13:21:09;3.95;;;1.40;;
22097;SDS011;11215;51.938;8.464;2023-06-04T13:23:35;3.03;;;1.55;;
22097;SDS011;11215;51.938;8.464;2023-06-04T13:26:00;1.90;;;1.40;;
22097;SDS011;11215;51.938;8.464;2023-06-04T13:28:26;4.28;;;1.40;;
22097;SDS011;11215;51.938;8.464;2023-06-04T13:30:52;1.55;;;1.35;;
22097;SDS011;11215;51.938;8.464;2023-06-04T13:33:18;1.83;;;1.50;;
22097;SDS011;11215;51.938;8.464;2023-06-04T13:35:45;1.65;;;1.30;;
22097;SDS011;11215;51.938;8.464;2023-06-04T13:38:10;1.98;;;1.25;;
22097;SDS011;11215;51.938;8.464;2023-06-04T13:40:37;2.03;;;1.30;;
22097;SDS011;11215;51.938;8.464;2023-06-04T13:43:04;1.25;;;1.15;;
22097;SDS011;11215;51.938;8.464;2023-06-04T13:45:30;3.28;;;1.48;;
22097;SDS011;11215;51.938;8.464;2023-06-04T13:47:56;3.00;;;1.52;;
22097;SDS011;11215;51.938;8.464;2023-06-04T13:50:27;2.58;;;1.35;;
22097;SDS011;11215;51.938;8.464;2023-06-04T13:52:53;1.60;;;1.33;;
22097;SDS011;11215;51.938;8.464;2023-06-04T13:55:18;1.45;;;1.30;;
22097;SDS011;11215;51.938;8.464;2023-06-04T13:57:44;2.08;;;1.50;;
22097;SDS011;11215;51.938;8.464;2023-06-04T14:00:10;1.42;;;1.33;;
22097;SDS011;11215;51.938;8.464;2023-06-04T14:02:38;2.72;;;1.55;;
22097;SDS011;11215;51.938;8.464;2023-06-04T14:05:04;1.77;;;1.67;;
22097;SDS011;11215;51.938;8.464;2023-06-04T14:07:30;1.42;;;1.30;;
22097;SDS011;11215;51.938;8.464;2023-06-04T14:09:56;1.35;;;1.05;;
22097;SDS011;11215;51.938;8.464;2023-06-04T14:12:22;2.67;;;1.60;;
22097;SDS011;11215;51.938;8.464;2023-06-04T14:14:48;2.72;;;1.40;;
22097;SDS011;11215;51.938;8.464;2023-06-04T14:17:14;1.38;;;1.27;;
22097;SDS011;11215;51.938;8.464;2023-06-04T14:19:40;2.30;;;1.55;;
22097;SDS011;11215;51.938;8.464;2023-06-04T14:22:06;1.75;;;1.23;;
22097;SDS011;11215;51.938;8.464;2023-06-04T14:24:32;1.15;;;1.08;;
22097;SDS011;11215;51.938;8.464;2023-06-04T14:26:58;1.23;;;0.98;;
22097;SDS011;11215;51.938;8.464;2023-06-04T14:29:24;2.65;;;1.25;;
22097;SDS011;11215;51.938;8.464;2023-06-04T14:31:50;1.52;;;1.20;;
22097;SDS011;11215;51.938;8.464;2023-06-04T14:34:15;4.22;;;1.20;;
22097;SDS011;11215;51.938;8.464;2023-06-04T14:36:41;1.33;;;1.10;;
22097;SDS011;11215;51.938;8.464;2023-06-04T14:39:06;2.53;;;1.10;;
22097;SDS011;11215;51.938;8.464;2023-06-04T14:41:32;3.28;;;1.15;;
22097;SDS011;11215;51.938;8.464;2023-06-04T14:43:58;2.63;;;1.30;;
22097;SDS011;11215;51.938;8.464;2023-06-04T14:46:24;1.30;;;1.20;;
22097;SDS011;11215;51.938;8.464;2023-06-04T14:48:50;1.10;;;1.10;;
22097;SDS011;11215;51.938;8.464;2023-06-04T14:51:16;3.75;;;1.50;;
22097;SDS011;11215;51.938;8.464;2023-06-04T14:53:41;1.40;;;1.15;;
22097;SDS011;11215;51.938;8.464;2023-06-04T14:56:07;5.30;;;1.48;;
22097;SDS011;11215;51.938;8.464;2023-06-04T14:58:33;2.88;;;1.38;;
22097;SDS011;11215;51.938;8.464;2023-06-04T15:00:59;1.45;;;1.20;;
22097;SDS011;11215;51.938;8.464;2023-06-04T15:03:25;1.50;;;1.40;;
22097;SDS011;11215;51.938;8.464;2023-06-04T15:05:51;1.50;;;1.10;;